createdAt,value
2018-04-15T00:00:32.775Z,73.20
2018-04-15T00:03:00.242Z,86.23
2018-04-15T00:05:28.022Z,61.10
2018-04-15T00:07:55.500Z,60.63
2018-04-15T00:10:23.066Z,73.70
2018-04-15T00:12:51.322Z,69.67
2018-04-15T00:15:18.800Z,61.73
2018-04-15T00:17:46.570Z,69.77
2018-04-15T00:20:14.305Z,71.07
2018-04-15T00:22:41.991Z,72.43
2018-04-15T00:25:09.454Z,77.10
2018-04-15T00:27:36.986Z,68.57
2018-04-15T00:30:04.460Z,90.00
2018-04-15T00:32:31.927Z,82.70
2018-04-15T00:34:59.391Z,99.07
2018-04-15T00:37:27.131Z,87.53
2018-04-15T00:39:54.890Z,67.47
2018-04-15T00:42:22.662Z,82.10
2018-04-15T00:44:50.134Z,80.60
2018-04-15T00:47:17.888Z,96.80
2018-04-15T00:49:45.651Z,84.40
2018-04-15T00:52:13.419Z,92.40
2018-04-15T00:54:41.179Z,91.60
2018-04-15T00:57:09.578Z,91.07
2018-04-15T00:59:37.054Z,79.07
2018-04-15T01:02:04.523Z,86.10
2018-04-15T01:04:31.998Z,96.03
2018-04-15T01:06:59.459Z,73.37
2018-04-15T01:09:27.126Z,86.43
2018-04-15T01:11:54.613Z,96.97
2018-04-15T01:14:22.087Z,103.73
2018-04-15T01:16:49.554Z,96.30
2018-04-15T01:19:17.022Z,84.87
2018-04-15T01:21:44.757Z,96.07
2018-04-15T01:24:12.326Z,65.70
2018-04-15T01:26:40.558Z,87.33
2018-04-15T01:29:08.058Z,90.27
2018-04-15T01:31:35.519Z,93.20
2018-04-15T01:34:03.274Z,101.07
2018-04-15T01:36:31.034Z,85.57
2018-04-15T01:38:58.502Z,77.97
2018-04-15T01:41:25.978Z,73.77
2018-04-15T01:43:53.441Z,80.50
2018-04-15T01:46:21.178Z,90.63
2018-04-15T01:48:48.947Z,86.13
2018-04-15T01:51:16.409Z,85.73
2018-04-15T01:53:43.952Z,91.63
2018-04-15T01:56:11.537Z,92.87
2018-04-15T01:58:39.010Z,94.13
2018-04-15T02:01:06.482Z,88.77
2018-04-15T02:03:33.955Z,98.10
2018-04-15T02:06:01.443Z,85.83
2018-04-15T02:08:28.915Z,102.40
2018-04-15T02:10:56.678Z,109.33
2018-04-15T02:13:24.370Z,83.40
2018-04-15T02:15:51.836Z,108.10
2018-04-15T02:18:19.304Z,79.73
2018-04-15T02:20:46.824Z,85.17
2018-04-15T02:23:14.581Z,90.03
2018-04-15T02:25:42.354Z,92.97
2018-04-15T02:28:10.110Z,90.10
2018-04-15T02:30:37.876Z,89.13
2018-04-15T02:33:05.646Z,74.60
2018-04-15T02:35:33.410Z,81.20
2018-04-15T02:38:01.006Z,100.50
2018-04-15T02:40:28.547Z,87.83
2018-04-15T02:42:56.018Z,93.50
2018-04-15T02:45:23.480Z,91.70
2018-04-15T02:47:51.619Z,91.47
2018-04-15T02:50:19.386Z,83.73
2018-04-15T02:52:46.862Z,103.23
2018-04-15T02:55:14.394Z,99.07
2018-04-15T02:57:41.860Z,82.90
2018-04-15T03:00:09.529Z,107.70
2018-04-15T03:02:37.294Z,108.93
2018-04-15T03:05:05.060Z,90.00
2018-04-15T03:07:32.826Z,89.53
2018-04-15T03:10:00.585Z,98.83
2018-04-15T03:12:28.044Z,83.03
2018-04-15T03:14:55.742Z,90.17
2018-04-15T03:17:23.263Z,75.83
2018-04-15T03:19:51.042Z,96.87
2018-04-15T03:22:18.523Z,91.33
2018-04-15T03:24:46.255Z,82.87
2018-04-15T03:27:14.019Z,93.07
2018-04-15T03:29:41.498Z,102.63
2018-04-15T03:32:09.242Z,98.73
2018-04-15T03:34:37.015Z,105.10
2018-04-15T03:37:04.495Z,97.83
2018-04-15T03:39:31.963Z,110.27
2018-04-15T03:41:59.691Z,98.67
2018-04-15T03:44:27.273Z,80.17
2018-04-15T03:46:55.834Z,94.67
2018-04-15T03:49:23.606Z,100.33
2018-04-15T03:51:51.366Z,85.20
2018-04-15T03:54:19.057Z,91.00
2018-04-15T03:56:46.591Z,109.37
2018-04-15T03:59:14.083Z,99.93
2018-04-15T04:01:41.553Z,87.07
2018-04-15T04:04:09.013Z,114.57
2018-04-15T04:06:36.485Z,89.70
2018-04-15T04:09:03.955Z,103.20
2018-04-15T04:11:31.491Z,88.13
2018-04-15T04:13:59.013Z,81.43
2018-04-15T04:16:26.477Z,65.83
2018-04-15T04:19:05.689Z,62.97
2018-04-15T04:21:44.930Z,67.03
2018-04-15T04:24:24.218Z,57.77
2018-04-15T04:26:51.682Z,66.53
2018-04-15T04:29:19.179Z,69.63
2018-04-15T04:31:46.943Z,76.17
2018-04-15T04:34:14.474Z,69.97
2018-04-15T04:36:42.079Z,65.30
2018-04-15T04:39:09.553Z,59.13
2018-04-15T04:41:37.027Z,68.00
2018-04-15T04:44:04.542Z,61.00
2018-04-15T04:46:32.305Z,48.13
2018-04-15T04:49:00.075Z,50.63
2018-04-15T04:51:27.834Z,58.93
2018-04-15T04:53:55.302Z,57.77
2018-04-15T04:56:22.975Z,72.00
2018-04-15T04:58:51.213Z,60.00
2018-04-15T05:01:18.669Z,57.20
2018-04-15T05:03:46.161Z,51.07
2018-04-15T05:06:14.392Z,50.53
2018-04-15T05:08:41.882Z,49.90
2018-04-15T05:11:09.358Z,41.60
2018-04-15T05:13:36.823Z,32.23
2018-04-15T05:16:04.568Z,31.53
2018-04-15T05:18:32.241Z,28.53
2018-04-15T05:20:59.706Z,29.40
2018-04-15T05:23:27.174Z,25.57
2018-04-15T05:25:54.651Z,23.07
2018-04-15T05:28:22.115Z,25.80
2018-04-15T05:30:49.621Z,23.33
2018-04-15T05:33:17.091Z,26.50
2018-04-15T05:35:44.606Z,17.27
2018-04-15T05:38:12.228Z,24.53
2018-04-15T05:40:39.703Z,22.03
2018-04-15T05:43:07.159Z,20.17
2018-04-15T05:45:34.629Z,22.63
2018-04-15T05:48:02.104Z,18.40
2018-04-15T05:50:29.567Z,17.77
2018-04-15T05:52:57.350Z,25.10
2018-04-15T05:55:24.823Z,20.70
2018-04-15T05:57:53.199Z,18.50
2018-04-15T06:00:20.662Z,19.43
2018-04-15T06:02:48.417Z,22.40
2018-04-15T06:05:16.215Z,17.77
2018-04-15T06:07:44.104Z,14.37
2018-04-15T06:10:11.990Z,13.97
2018-04-15T06:12:39.475Z,10.87
2018-04-15T06:15:06.942Z,10.90
2018-04-15T06:17:34.403Z,13.40
2018-04-15T06:20:01.924Z,18.27
2018-04-15T06:22:29.468Z,14.43
2018-04-15T06:24:57.076Z,12.33
2018-04-15T06:27:24.546Z,14.23
2018-04-15T06:29:52.295Z,12.90
2018-04-15T06:32:19.763Z,17.93
2018-04-15T06:34:48.042Z,9.83
2018-04-15T06:37:15.518Z,8.47
2018-04-15T06:39:42.974Z,7.87
2018-04-15T06:42:10.506Z,11.80
2018-04-15T06:44:37.980Z,11.60
2018-04-15T06:47:05.454Z,10.20
2018-04-15T06:49:33.092Z,10.60
2018-04-15T06:52:00.657Z,14.13
2018-04-15T06:54:28.119Z,10.07
2018-04-15T06:56:55.582Z,11.40
2018-04-15T06:59:23.325Z,8.83
2018-04-15T07:01:51.095Z,11.10
2018-04-15T07:04:18.859Z,10.43
2018-04-15T07:06:46.623Z,14.53
2018-04-15T07:09:14.087Z,8.90
2018-04-15T07:11:41.846Z,10.43
2018-04-15T07:14:09.311Z,11.30
2018-04-15T07:16:36.788Z,9.43
2018-04-15T07:19:04.247Z,10.47
2018-04-15T07:21:31.986Z,10.20
2018-04-15T07:23:59.458Z,13.50
2018-04-15T07:26:27.219Z,12.20
2018-04-15T07:28:54.699Z,9.27
2018-04-15T07:31:22.431Z,12.97
2018-04-15T07:33:50.200Z,7.07
2018-04-15T07:36:17.670Z,11.07
2018-04-15T07:38:45.130Z,9.80
2018-04-15T07:41:12.743Z,9.17
2018-04-15T07:43:40.222Z,7.57
2018-04-15T07:46:07.951Z,17.03
2018-04-15T07:48:35.402Z,8.60
2018-04-15T07:51:03.018Z,9.40
2018-04-15T07:53:30.474Z,11.10
2018-04-15T07:55:58.238Z,9.87
2018-04-15T07:58:25.702Z,9.30
2018-04-15T08:00:53.462Z,19.70
2018-04-15T08:03:21.154Z,6.80
2018-04-15T08:05:48.686Z,4.20
2018-04-15T08:08:16.367Z,5.23
2018-04-15T08:10:43.839Z,11.93
2018-04-15T08:13:11.372Z,4.90
2018-04-15T08:15:38.826Z,6.10
2018-04-15T08:18:06.292Z,4.87
2018-04-15T08:20:33.754Z,6.30
2018-04-15T08:23:01.982Z,6.40
2018-04-15T08:25:29.428Z,3.50
2018-04-15T08:27:57.038Z,16.93
2018-04-15T08:30:24.619Z,8.87
2018-04-15T08:32:52.878Z,4.67
2018-04-15T08:35:20.638Z,2.30
2018-04-15T08:37:48.403Z,1.50
2018-04-15T08:40:17.374Z,3.67
2018-04-15T08:42:44.853Z,9.73
2018-04-15T08:45:12.622Z,2.50
2018-04-15T08:47:40.391Z,1.87
2018-04-15T08:50:08.719Z,2.17
2018-04-15T08:52:36.186Z,1.70
2018-04-15T08:55:03.687Z,2.93
2018-04-15T08:57:31.451Z,2.50
2018-04-15T08:59:58.920Z,4.50
2018-04-15T09:02:26.669Z,5.87
2018-04-15T09:04:54.137Z,1.70
2018-04-15T09:07:21.895Z,1.40
2018-04-15T09:09:49.658Z,2.40
2018-04-15T09:12:17.425Z,1.00
2018-04-15T09:14:45.185Z,0.80
2018-04-15T09:17:12.646Z,1.30
2018-04-15T09:19:40.415Z,2.50
2018-04-15T09:22:08.179Z,1.20
2018-04-15T09:24:35.947Z,1.23
2018-04-15T09:27:03.412Z,2.87
2018-04-15T09:29:31.146Z,1.30
2018-04-15T09:31:58.625Z,0.60
2018-04-15T09:34:26.391Z,2.70
2018-04-15T09:36:54.158Z,1.20
2018-04-15T09:39:21.615Z,1.77
2018-04-15T09:41:49.097Z,1.37
2018-04-15T09:44:17.366Z,1.57
2018-04-15T09:46:44.819Z,1.77
2018-04-15T09:49:12.288Z,2.00
2018-04-15T09:51:39.739Z,1.50
2018-04-15T09:54:07.206Z,1.40
2018-04-15T09:56:34.684Z,2.77
2018-04-15T09:59:02.202Z,1.80
2018-04-15T10:01:29.762Z,2.10
2018-04-15T10:03:57.231Z,3.60
2018-04-15T10:06:24.686Z,2.00
2018-04-15T10:08:52.257Z,1.50
2018-04-15T10:11:19.742Z,2.20
2018-04-15T10:13:47.252Z,1.97
2018-04-15T10:16:14.725Z,1.40
2018-04-15T10:18:42.186Z,2.50
2018-04-15T10:21:09.648Z,1.53
2018-04-15T10:23:37.395Z,1.60
2018-04-15T10:26:05.162Z,1.67
2018-04-15T10:28:32.619Z,1.97
2018-04-15T10:31:00.086Z,3.00
2018-04-15T10:33:27.543Z,1.13
2018-04-15T10:35:55.302Z,5.43
2018-04-15T10:38:22.974Z,2.00
2018-04-15T10:40:50.435Z,1.73
2018-04-15T10:43:18.662Z,1.20
2018-04-15T10:45:46.131Z,2.50
2018-04-15T10:48:13.824Z,5.60
2018-04-15T10:50:41.278Z,6.13
2018-04-15T10:53:08.747Z,1.30
2018-04-15T10:55:36.298Z,2.00
2018-04-15T10:58:03.749Z,3.60
2018-04-15T11:00:31.214Z,3.83
2018-04-15T11:02:58.869Z,1.83
2018-04-15T11:05:26.330Z,1.90
2018-04-15T11:07:53.781Z,1.27
2018-04-15T11:10:21.354Z,2.33
2018-04-15T11:12:48.810Z,17.97
2018-04-15T11:15:16.266Z,1.40
2018-04-15T11:17:43.930Z,3.00
2018-04-15T11:20:11.697Z,2.43
2018-04-15T11:22:39.149Z,4.70
2018-04-15T11:25:06.768Z,1.40
2018-04-15T11:27:35.302Z,3.03
2018-04-15T11:30:02.758Z,1.73
2018-04-15T11:32:30.505Z,3.10
2018-04-15T11:34:57.957Z,1.10
2018-04-15T11:37:25.418Z,3.03
2018-04-15T11:39:52.895Z,2.50
2018-04-15T11:42:20.350Z,3.17
2018-04-15T11:44:47.817Z,2.47
2018-04-15T11:47:15.282Z,1.40
2018-04-15T11:49:42.745Z,3.60
2018-04-15T11:52:10.970Z,1.40
2018-04-15T11:54:38.435Z,5.50
2018-04-15T11:57:05.890Z,1.30
2018-04-15T11:59:33.378Z,1.10
2018-04-15T12:02:00.841Z,8.77
2018-04-15T12:04:28.295Z,2.00
2018-04-15T12:06:55.774Z,4.30
2018-04-15T12:09:23.226Z,4.70
2018-04-15T12:11:50.690Z,1.57
2018-04-15T12:14:18.229Z,0.87
2018-04-15T12:16:45.698Z,1.10
2018-04-15T12:19:14.687Z,1.73
2018-04-15T12:21:42.147Z,0.97
2018-04-15T12:24:09.774Z,3.93
2018-04-15T12:26:37.277Z,1.83
2018-04-15T12:29:04.738Z,2.37
2018-04-15T12:31:32.195Z,1.30
2018-04-15T12:33:59.783Z,1.07
2018-04-15T12:36:28.699Z,1.10
2018-04-15T12:38:56.191Z,2.83
2018-04-15T12:41:23.642Z,1.20
2018-04-15T12:43:51.110Z,1.10
2018-04-15T12:46:20.081Z,6.53
2018-04-15T12:48:47.535Z,7.93
2018-04-15T12:51:15.004Z,1.23
2018-04-15T12:53:42.459Z,1.40
2018-04-15T12:56:10.237Z,1.73
2018-04-15T12:58:39.209Z,1.83
2018-04-15T13:01:06.691Z,1.00
2018-04-15T13:03:35.656Z,1.80
2018-04-15T13:06:03.158Z,1.00
2018-04-15T13:08:30.605Z,11.47
2018-04-15T13:10:58.065Z,5.30
2018-04-15T13:13:25.743Z,1.20
2018-04-15T13:15:53.194Z,1.07
2018-04-15T13:18:20.738Z,8.70
2018-04-15T13:20:48.317Z,3.33
2018-04-15T13:23:16.558Z,9.13
2018-04-15T13:25:44.014Z,2.97
2018-04-15T13:28:11.474Z,2.37
2018-04-15T13:30:38.935Z,2.20
2018-04-15T13:33:06.406Z,114.73
2018-04-15T13:35:33.976Z,11.60
2018-04-15T13:38:01.435Z,2.50
2018-04-15T13:40:29.090Z,2.00
2018-04-15T13:42:56.542Z,2.63
2018-04-15T13:45:24.008Z,1.37
2018-04-15T13:47:51.985Z,1.40
2018-04-15T13:50:19.540Z,1.70
2018-04-15T13:52:46.995Z,3.80
2018-04-15T13:55:14.454Z,2.10
2018-04-15T13:57:42.136Z,3.10
2018-04-15T14:00:09.595Z,2.37
2018-04-15T14:02:37.046Z,3.60
2018-04-15T14:05:05.438Z,1.90
2018-04-15T14:07:32.978Z,2.77
2018-04-15T14:10:00.430Z,4.50
2018-04-15T14:12:27.890Z,9.37
2018-04-15T14:14:55.348Z,5.27
2018-04-15T14:17:23.117Z,2.13
2018-04-15T14:19:50.580Z,3.47
2018-04-15T14:22:18.250Z,4.23
2018-04-15T14:24:45.726Z,5.63
2018-04-15T14:27:13.192Z,2.40
2018-04-15T14:29:40.642Z,3.20
2018-04-15T14:32:08.171Z,2.70
2018-04-15T14:34:35.622Z,3.87
2018-04-15T14:37:03.094Z,2.40
2018-04-15T14:39:30.855Z,2.70
2018-04-15T14:41:58.615Z,3.10
2018-04-15T14:44:26.378Z,5.60
2018-04-15T14:46:53.843Z,3.43
2018-04-15T14:49:21.302Z,6.17
2018-04-15T14:51:49.062Z,3.83
2018-04-15T14:54:16.739Z,1.80
2018-04-15T14:56:44.226Z,1.93
2018-04-15T14:59:11.700Z,2.37
2018-04-15T15:01:39.210Z,2.97
2018-04-15T15:04:06.739Z,15.23
2018-04-15T15:06:34.336Z,1.77
2018-04-15T15:09:01.818Z,1.73
2018-04-15T15:11:29.339Z,2.10
2018-04-15T15:13:56.799Z,2.60
2018-04-15T15:16:24.488Z,2.10
2018-04-15T15:18:52.002Z,2.63
2018-04-15T15:21:19.747Z,5.73
2018-04-15T15:23:47.199Z,2.77
2018-04-15T15:26:14.703Z,2.83
2018-04-15T15:28:42.470Z,2.23
2018-04-15T15:31:10.084Z,2.70
2018-04-15T15:33:37.530Z,3.33
2018-04-15T15:36:05.070Z,1.93
2018-04-15T15:38:33.531Z,3.37
2018-04-15T15:41:00.988Z,2.83
2018-04-15T15:43:28.446Z,2.63
2018-04-15T15:45:55.906Z,2.30
2018-04-15T15:48:23.369Z,1.77
2018-04-15T15:50:50.827Z,2.70
2018-04-15T15:53:18.279Z,2.50
2018-04-15T15:55:45.750Z,1.73
2018-04-15T15:58:13.336Z,1.77
2018-04-15T16:00:40.954Z,3.93
2018-04-15T16:03:08.595Z,2.90
2018-04-15T16:05:36.178Z,2.40
2018-04-15T16:08:03.797Z,2.03
2018-04-15T16:10:31.409Z,2.40
2018-04-15T16:12:58.868Z,2.33
2018-04-15T16:15:26.554Z,11.30
2018-04-15T16:17:54.087Z,2.33
2018-04-15T16:20:21.554Z,2.53
2018-04-15T16:22:49.159Z,3.07
2018-04-15T16:25:16.694Z,1.73
2018-04-15T16:27:44.226Z,4.27
2018-04-15T16:30:11.901Z,2.10
2018-04-15T16:32:40.342Z,2.20
2018-04-15T16:35:07.836Z,3.93
2018-04-15T16:37:35.442Z,2.57
2018-04-15T16:40:02.994Z,2.27
2018-04-15T16:42:30.463Z,2.43
2018-04-15T16:44:57.919Z,3.57
2018-04-15T16:47:25.386Z,4.00
2018-04-15T16:49:52.847Z,1.90
2018-04-15T16:52:20.298Z,1.70
2018-04-15T16:54:47.799Z,6.40
2018-04-15T16:57:15.261Z,3.07
2018-04-15T16:59:42.724Z,2.90
2018-04-15T17:02:10.390Z,4.50
2018-04-15T17:04:37.884Z,4.77
2018-04-15T17:07:05.334Z,3.37
2018-04-15T17:09:32.852Z,3.13
2018-04-15T17:12:01.819Z,1.70
2018-04-15T17:14:29.284Z,3.70
2018-04-15T17:16:56.743Z,2.83
2018-04-15T17:19:24.191Z,3.40
2018-04-15T17:21:51.657Z,5.50
2018-04-15T17:24:19.139Z,2.90
2018-04-15T17:26:46.822Z,2.27
2018-04-15T17:29:14.274Z,3.70
2018-04-15T17:31:41.820Z,4.00
2018-04-15T17:34:10.811Z,2.60
2018-04-15T17:36:39.820Z,6.30
2018-04-15T17:39:07.263Z,4.93
2018-04-15T17:41:35.031Z,6.07
2018-04-15T17:44:04.005Z,3.27
2018-04-15T17:46:31.471Z,9.27
2018-04-15T17:48:58.926Z,15.90
2018-04-15T17:51:26.531Z,13.70
2018-04-15T17:53:54.783Z,8.73
2018-04-15T17:56:23.746Z,6.13
2018-04-15T17:58:51.243Z,3.53
2018-04-15T18:01:18.673Z,3.00
2018-04-15T18:03:46.131Z,5.60
2018-04-15T18:06:13.586Z,6.90
2018-04-15T18:08:41.071Z,5.17
2018-04-15T18:11:10.056Z,5.47
2018-04-15T18:13:39.050Z,6.53
2018-04-15T18:16:06.522Z,9.30
2018-04-15T18:18:33.974Z,14.83
2018-04-15T18:21:01.431Z,4.43
2018-04-15T18:23:30.419Z,3.20
2018-04-15T18:25:59.414Z,3.73
2018-04-15T18:28:28.374Z,2.27
2018-04-15T18:30:55.890Z,2.87
2018-04-15T18:33:24.102Z,5.00
2018-04-15T18:35:51.618Z,3.30
2018-04-15T18:38:19.162Z,5.63
2018-04-15T18:40:48.154Z,2.60
2018-04-15T18:43:17.122Z,6.50
2018-04-15T18:45:44.578Z,5.07
2018-04-15T18:48:12.074Z,3.93
2018-04-15T18:50:39.536Z,10.33
2018-04-15T18:53:07.290Z,2.07
2018-04-15T18:55:34.747Z,2.60
2018-04-15T18:58:02.214Z,4.50
2018-04-15T19:00:29.669Z,4.37
2018-04-15T19:02:57.442Z,4.57
2018-04-15T19:05:25.195Z,6.43
2018-04-15T19:07:52.762Z,3.60
2018-04-15T19:10:20.350Z,3.00
2018-04-15T19:12:47.819Z,5.60
2018-04-15T19:15:15.267Z,6.30
2018-04-15T19:17:42.729Z,6.23
2018-04-15T19:20:10.212Z,9.90
2018-04-15T19:22:37.683Z,18.20
2018-04-15T19:25:05.167Z,18.87
2018-04-15T19:27:32.642Z,14.80
2018-04-15T19:30:00.174Z,19.00
2018-04-15T19:32:27.765Z,14.63
2018-04-15T19:34:55.226Z,11.00
2018-04-15T19:37:22.765Z,10.27
2018-04-15T19:39:50.529Z,11.83
2018-04-15T19:42:18.004Z,8.70
2018-04-15T19:44:45.464Z,10.53
2018-04-15T19:47:13.682Z,6.67
2018-04-15T19:49:41.194Z,4.60
2018-04-15T19:52:08.646Z,4.17
2018-04-15T19:54:36.103Z,3.70
2018-04-15T19:57:04.490Z,6.50
2018-04-15T19:59:31.946Z,12.47
2018-04-15T20:01:59.407Z,8.10
2018-04-15T20:04:26.861Z,4.80
2018-04-15T20:06:55.091Z,11.13
2018-04-15T20:09:22.554Z,17.17
2018-04-15T20:11:50.246Z,13.17
2018-04-15T20:14:17.759Z,9.70
2018-04-15T20:16:45.959Z,9.03
2018-04-15T20:19:13.557Z,4.30
2018-04-15T20:21:41.014Z,5.97
2018-04-15T20:24:08.474Z,5.10
2018-04-15T20:26:35.937Z,5.03
2018-04-15T20:29:03.416Z,3.80
2018-04-15T20:31:30.874Z,5.20
2018-04-15T20:33:58.506Z,6.90
2018-04-15T20:36:25.970Z,4.87
2018-04-15T20:38:53.430Z,10.77
2018-04-15T20:41:20.889Z,6.17
2018-04-15T20:43:48.361Z,11.83
2018-04-15T20:46:15.820Z,5.80
2018-04-15T20:48:43.470Z,3.20
2018-04-15T20:51:11.715Z,3.50
2018-04-15T20:53:39.191Z,9.37
2018-04-15T20:56:06.643Z,4.80
2018-04-15T20:58:34.322Z,4.60
2018-04-15T21:01:01.791Z,6.20
2018-04-15T21:03:29.249Z,5.67
2018-04-15T21:05:56.741Z,4.33
2018-04-15T21:08:24.240Z,5.13
2018-04-15T21:10:51.703Z,4.07
2018-04-15T21:13:19.462Z,4.63
2018-04-15T21:15:47.229Z,4.77
2018-04-15T21:18:14.990Z,5.73
2018-04-15T21:20:42.754Z,8.00
2018-04-15T21:23:10.451Z,7.27
2018-04-15T21:25:37.914Z,9.93
2018-04-15T21:28:05.361Z,5.93
2018-04-15T21:30:33.597Z,8.73
2018-04-15T21:33:01.063Z,4.33
2018-04-15T21:35:28.737Z,7.60
2018-04-15T21:37:56.406Z,4.47
2018-04-15T21:40:23.954Z,7.80
2018-04-15T21:42:51.429Z,7.37
2018-04-15T21:45:18.884Z,3.53
2018-04-15T21:47:47.148Z,8.30
2018-04-15T21:50:14.606Z,7.20
2018-04-15T21:52:42.095Z,7.77
2018-04-15T21:55:09.627Z,5.57
2018-04-15T21:57:37.305Z,4.67
2018-04-15T22:00:04.774Z,4.67
2018-04-15T22:02:32.226Z,8.13
2018-04-15T22:04:59.686Z,4.07
2018-04-15T22:07:27.223Z,5.33
2018-04-15T22:09:54.685Z,5.60
2018-04-15T22:12:22.449Z,4.90
2018-04-15T22:14:49.918Z,7.33
2018-04-15T22:17:17.674Z,4.37
2018-04-15T22:19:45.130Z,4.87
2018-04-15T22:22:12.894Z,6.00
2018-04-15T22:24:40.359Z,12.23
2018-04-15T22:27:07.827Z,6.40
2018-04-15T22:29:35.574Z,4.83
2018-04-15T22:32:03.392Z,8.30
2018-04-15T22:34:31.107Z,10.07
2018-04-15T22:36:58.582Z,8.03
2018-04-15T22:39:26.327Z,5.60
2018-04-15T22:41:53.790Z,6.87
2018-04-15T22:44:21.266Z,14.50
2018-04-15T22:46:48.930Z,6.50
2018-04-15T22:49:22.462Z,7.30
2018-04-15T22:51:49.925Z,7.67
2018-04-15T22:54:17.528Z,5.30
2018-04-15T22:56:44.986Z,5.50
2018-04-15T22:59:12.475Z,8.67
2018-04-15T23:01:40.212Z,8.50
2018-04-15T23:04:07.679Z,5.37
2018-04-15T23:06:35.434Z,7.00
2018-04-15T23:09:02.894Z,10.00
2018-04-15T23:11:30.367Z,6.70
2018-04-15T23:13:58.114Z,10.00
2018-04-15T23:16:25.578Z,5.40
2018-04-15T23:18:53.062Z,8.80
2018-04-15T23:21:20.522Z,7.37
2018-04-15T23:23:48.254Z,12.33
2018-04-15T23:26:16.018Z,10.23
2018-04-15T23:28:43.485Z,4.40
2018-04-15T23:31:10.942Z,9.03
2018-04-15T23:33:38.405Z,26.93
2018-04-15T23:36:06.163Z,8.37
2018-04-15T23:38:33.925Z,5.40
2018-04-15T23:41:01.430Z,17.53
2018-04-15T23:43:29.059Z,7.70
2018-04-15T23:45:56.527Z,7.43
2018-04-15T23:48:23.986Z,6.53
2018-04-15T23:50:51.518Z,19.87
2018-04-15T23:53:19.199Z,6.20
2018-04-15T23:55:47.623Z,4.20
2018-04-15T23:58:15.082Z,4.43
